Wetter Infos

Wetter-Informationen f√ľr den Flugplatz Hof

Die wichtigsten und aktuellen Wetterdaten f√ľr den Flugplatz Hof-Plauen sowie f√ľr die Umgebung haben wir hier zusammengestellt.

METARs

EDQM 161750Z 35007KT 300V020 CAVOK 18/10 Q1016

EDDN 170320Z 34001KT CAVOK 10/10 Q1016

EDDP 170320Z 29005KT 9999 BKN023 13/12 Q1016 NOSIG

EDDC 170320Z 29004KT 260V330 9999 BKN009 14/12 Q1015

Hof Wetter

DWD – Abruf von Luftsportberichten HIER


Aktuelles Niederschlagsradar

Quelle: © Deutscher Wetterdienst
Quelle: Deutscher Wetterdienst